createdAt,value
2023-04-15T00:01:08.255Z,8.08
2023-04-15T00:03:36.475Z,8.04
2023-04-15T00:06:04.515Z,8.08
2023-04-15T00:08:31.872Z,7.98
2023-04-15T00:11:03.127Z,7.94
2023-04-15T00:13:30.623Z,7.97
2023-04-15T00:15:58.330Z,7.91
2023-04-15T00:18:25.769Z,7.91
2023-04-15T00:20:53.634Z,7.93
2023-04-15T00:23:21.061Z,7.90
2023-04-15T00:25:48.769Z,7.96
2023-04-15T00:28:16.024Z,7.96
2023-04-15T00:30:44.165Z,7.90
2023-04-15T00:33:11.487Z,7.88
2023-04-15T00:35:39.682Z,7.99
2023-04-15T00:38:08.442Z,8.19
2023-04-15T00:40:36.156Z,8.12
2023-04-15T00:43:04.393Z,8.14
2023-04-15T00:45:32.217Z,7.91
2023-04-15T00:48:00.620Z,7.92
2023-04-15T00:50:28.222Z,7.90
2023-04-15T00:52:56.248Z,7.88
2023-04-15T00:55:26.341Z,7.94
2023-04-15T00:57:53.675Z,7.98
2023-04-15T01:00:23.049Z,8.05
2023-04-15T01:02:51.087Z,8.13
2023-04-15T01:05:19.754Z,8.01
2023-04-15T01:07:48.374Z,8.01
2023-04-15T01:10:16.093Z,7.94
2023-04-15T01:12:44.728Z,7.98
2023-04-15T01:15:12.426Z,8.03
2023-04-15T01:17:40.173Z,8.16
2023-04-15T01:20:11.763Z,8.10
2023-04-15T01:22:39.636Z,7.95
2023-04-15T01:25:19.858Z,8.05
2023-04-15T01:27:47.802Z,7.93
2023-04-15T01:30:17.143Z,7.66
2023-04-15T01:32:44.554Z,7.74
2023-04-15T01:35:12.533Z,7.72
2023-04-15T01:37:39.795Z,7.78
2023-04-15T01:40:10.218Z,7.84
2023-04-15T01:42:38.508Z,7.92
2023-04-15T01:45:07.328Z,7.95
2023-04-15T01:47:34.703Z,8.01
2023-04-15T01:50:02.865Z,8.06
2023-04-15T01:52:30.581Z,8.17
2023-04-15T01:54:58.428Z,8.37
2023-04-15T01:57:25.653Z,8.22
2023-04-15T01:59:53.234Z,8.30
2023-04-15T02:02:22.150Z,8.41
2023-04-15T02:04:50.538Z,8.34
2023-04-15T02:07:19.797Z,8.25
2023-04-15T02:09:47.812Z,8.29
2023-04-15T02:12:15.112Z,8.36
2023-04-15T02:14:42.690Z,8.33
2023-04-15T02:17:10.046Z,8.44
2023-04-15T02:19:38.360Z,8.45
2023-04-15T02:22:07.424Z,8.47
2023-04-15T02:24:35.974Z,8.40
2023-04-15T02:27:03.738Z,8.29
2023-04-15T02:29:33.260Z,8.38
2023-04-15T02:32:02.628Z,8.32
2023-04-15T02:34:31.652Z,8.39
2023-04-15T02:36:59.834Z,8.49
2023-04-15T02:39:27.531Z,8.42
2023-04-15T02:41:56.941Z,8.42
2023-04-15T02:44:25.242Z,8.50
2023-04-15T02:46:58.439Z,8.42
2023-04-15T02:49:26.535Z,8.32
2023-04-15T02:51:54.058Z,8.13
2023-04-15T02:54:26.078Z,8.22
2023-04-15T02:56:55.483Z,8.27
2023-04-15T02:59:23.692Z,8.24
2023-04-15T03:01:51.291Z,8.30
2023-04-15T03:04:19.181Z,8.22
2023-04-15T03:06:47.158Z,8.23
2023-04-15T03:09:15.424Z,8.32
2023-04-15T03:11:43.560Z,8.20
2023-04-15T03:14:11.407Z,8.09
2023-04-15T03:16:43.626Z,8.20
2023-04-15T03:19:12.935Z,8.16
2023-04-15T03:21:43.125Z,8.08
2023-04-15T03:28:44.374Z,8.02
2023-04-15T03:31:16.443Z,8.08
2023-04-15T03:33:44.214Z,8.09
2023-04-15T03:36:11.668Z,7.99
2023-04-15T03:38:39.240Z,8.12
2023-04-15T03:41:08.233Z,8.03
2023-04-15T03:43:36.146Z,8.05
2023-04-15T03:46:05.852Z,8.12
2023-04-15T03:48:34.616Z,8.06
2023-04-15T03:51:02.360Z,8.18
2023-04-15T03:53:31.655Z,8.08
2023-04-15T03:55:59.014Z,8.12
2023-04-15T03:58:26.917Z,8.07
2023-04-15T04:00:55.627Z,8.12
2023-04-15T04:03:24.109Z,8.18
2023-04-15T04:05:52.694Z,8.17
2023-04-15T04:08:22.554Z,8.16
2023-04-15T04:10:49.848Z,8.16
2023-04-15T04:13:18.757Z,8.22
2023-04-15T04:15:46.322Z,8.23
2023-04-15T04:18:13.890Z,8.32
2023-04-15T04:20:41.985Z,8.30
2023-04-15T04:23:10.405Z,8.28
2023-04-15T04:25:37.847Z,8.34
2023-04-15T04:28:05.481Z,8.32
2023-04-15T04:30:33.146Z,8.45
2023-04-15T04:33:01.032Z,8.54
2023-04-15T04:35:30.624Z,8.59
2023-04-15T04:37:58.278Z,8.64
2023-04-15T04:40:28.190Z,8.64
2023-04-15T04:42:56.859Z,8.77
2023-04-15T04:45:51.804Z,8.79
2023-04-15T04:48:32.068Z,8.79
2023-04-15T04:51:03.332Z,8.88
2023-04-15T04:53:57.421Z,9.12
2023-04-15T04:56:26.802Z,9.19
2023-04-15T04:58:54.422Z,9.35
2023-04-15T05:01:21.817Z,9.29
2023-04-15T05:03:49.724Z,9.42
2023-04-15T05:06:17.057Z,9.47
2023-04-15T05:08:48.206Z,9.67
2023-04-15T05:11:16.416Z,9.65
2023-04-15T05:13:44.067Z,9.83
2023-04-15T05:16:11.323Z,9.79
2023-04-15T05:18:41.611Z,9.86
2023-04-15T05:21:08.952Z,9.91
2023-04-15T05:23:36.840Z,9.89
2023-04-15T05:26:04.241Z,10.07
2023-04-15T05:28:32.729Z,10.32
2023-04-15T05:31:00.325Z,10.63
2023-04-15T05:33:28.082Z,11.10
2023-04-15T05:35:55.729Z,11.45
2023-04-15T05:38:23.491Z,11.75
2023-04-15T05:40:51.041Z,12.00
2023-04-15T05:43:18.803Z,12.26
2023-04-15T05:45:46.287Z,12.51
2023-04-15T05:48:14.019Z,12.68
2023-04-15T05:50:44.521Z,12.93
2023-04-15T05:53:12.311Z,13.11
2023-04-15T05:55:39.575Z,13.17
2023-04-15T05:58:08.203Z,13.23
2023-04-15T06:00:36.650Z,13.37
2023-04-15T06:03:04.471Z,13.56
2023-04-15T06:05:31.686Z,13.57
2023-04-15T06:07:59.212Z,14.23
2023-04-15T06:10:26.510Z,13.89
2023-04-15T06:12:54.757Z,14.21
2023-04-15T06:15:23.188Z,14.21
2023-04-15T06:17:51.969Z,14.76
2023-04-15T06:20:19.677Z,14.80
2023-04-15T06:22:47.421Z,14.70
2023-04-15T06:25:14.863Z,14.52
2023-04-15T06:27:42.443Z,14.00
2023-04-15T06:30:10.329Z,14.21
2023-04-15T06:32:38.060Z,14.27
2023-04-15T06:35:05.707Z,14.67
2023-04-15T06:37:33.242Z,14.50
2023-04-15T06:40:00.614Z,14.48
2023-04-15T06:42:28.269Z,14.17
2023-04-15T06:44:55.873Z,14.47
2023-04-15T06:47:23.494Z,14.09
2023-04-15T06:49:51.157Z,14.64
2023-04-15T06:52:18.874Z,14.69
2023-04-15T06:54:46.122Z,14.45
2023-04-15T06:57:15.047Z,14.89
2023-04-15T06:59:43.194Z,14.91
2023-04-15T07:02:14.106Z,14.58
2023-04-15T07:04:42.037Z,15.19
2023-04-15T07:07:12.874Z,15.69
2023-04-15T07:09:40.167Z,15.95
2023-04-15T07:12:07.833Z,15.68
2023-04-15T07:14:35.141Z,15.11
2023-04-15T07:17:02.904Z,14.56
2023-04-15T07:19:30.228Z,14.83
2023-04-15T07:21:57.855Z,14.49
2023-04-15T07:24:26.942Z,14.87
2023-04-15T07:26:59.434Z,14.80
2023-04-15T07:29:28.239Z,15.05
2023-04-15T07:31:57.388Z,14.97
2023-04-15T07:34:24.737Z,15.28
2023-04-15T07:36:52.802Z,15.58
2023-04-15T07:39:21.239Z,15.38
2023-04-15T07:41:50.837Z,15.62
2023-04-15T07:44:19.225Z,15.63
2023-04-15T07:46:46.841Z,16.01
2023-04-15T07:49:14.630Z,15.87
2023-04-15T07:51:44.559Z,15.82
2023-04-15T07:54:11.895Z,16.29
2023-04-15T07:56:39.478Z,16.12
2023-04-15T07:59:07.185Z,16.40
2023-04-15T08:01:36.965Z,15.90
2023-04-15T08:04:04.496Z,16.16
2023-04-15T08:06:34.141Z,16.31
2023-04-15T08:09:05.662Z,16.46
2023-04-15T08:11:35.096Z,16.52
2023-04-15T08:14:02.558Z,16.43
2023-04-15T08:16:30.241Z,16.12
2023-04-15T08:18:58.033Z,16.32
2023-04-15T08:21:26.044Z,16.86
2023-04-15T08:23:54.684Z,17.20
2023-04-15T08:26:22.980Z,17.09
2023-04-15T08:28:50.443Z,16.93
2023-04-15T08:31:19.482Z,17.68
2023-04-15T08:33:49.550Z,17.11
2023-04-15T08:36:17.675Z,17.11
2023-04-15T08:38:47.838Z,17.25
2023-04-15T08:41:23.672Z,17.53
2023-04-15T08:43:58.513Z,17.77
2023-04-15T08:46:28.213Z,17.57
2023-04-15T08:48:58.101Z,18.73
2023-04-15T08:51:26.726Z,18.46
2023-04-15T08:53:57.483Z,17.63
2023-04-15T08:56:29.608Z,18.48
2023-04-15T08:58:58.057Z,17.55
2023-04-15T09:01:26.764Z,17.00
2023-04-15T09:03:57.346Z,16.96
2023-04-15T09:06:25.851Z,18.27
2023-04-15T09:08:53.254Z,18.62
2023-04-15T09:11:22.507Z,18.25
2023-04-15T09:13:50.088Z,17.63
2023-04-15T09:16:17.829Z,17.42
2023-04-15T09:18:45.152Z,17.11
2023-04-15T09:21:15.764Z,17.61
2023-04-15T09:24:01.565Z,18.30
2023-04-15T09:26:37.330Z,19.21
2023-04-15T09:29:07.087Z,18.30
2023-04-15T09:31:35.232Z,19.81
2023-04-15T09:34:04.805Z,19.08
2023-04-15T09:36:57.067Z,18.82
2023-04-15T09:39:24.473Z,19.23
2023-04-15T09:42:07.031Z,19.81
2023-04-15T09:44:35.896Z,18.14
2023-04-15T09:47:04.028Z,19.08
2023-04-15T09:49:31.349Z,19.08
2023-04-15T09:52:06.115Z,19.35
2023-04-15T09:54:39.172Z,19.65
2023-04-15T09:57:08.570Z,18.86
2023-04-15T09:59:36.442Z,19.35
2023-04-15T10:02:10.832Z,19.55
2023-04-15T10:04:41.685Z,20.02
2023-04-15T10:07:10.031Z,19.46
2023-04-15T10:09:39.142Z,20.06
2023-04-15T10:12:09.217Z,19.52
2023-04-15T10:14:38.872Z,19.64
2023-04-15T10:17:11.641Z,20.09
2023-04-15T10:19:39.227Z,19.64
2023-04-15T10:22:08.186Z,19.99
2023-04-15T10:24:35.579Z,20.28
2023-04-15T10:27:07.568Z,19.84
2023-04-15T10:29:35.027Z,18.92
2023-04-15T10:32:03.845Z,19.40
2023-04-15T10:34:32.438Z,19.53
2023-04-15T10:37:06.893Z,19.57
2023-04-15T10:39:37.685Z,20.01
2023-04-15T10:42:11.067Z,20.03
2023-04-15T10:44:58.848Z,20.16
2023-04-15T10:47:26.584Z,20.41
2023-04-15T10:50:02.619Z,20.09
2023-04-15T10:52:31.062Z,20.39
2023-04-15T10:55:23.286Z,20.30
2023-04-15T10:57:58.983Z,20.25
2023-04-15T11:00:29.923Z,19.76
2023-04-15T11:03:11.036Z,20.09
2023-04-15T11:05:54.640Z,20.25
2023-04-15T11:08:54.168Z,20.95
2023-04-15T11:11:23.005Z,21.50
2023-04-15T11:13:52.755Z,22.16
2023-04-15T11:16:20.432Z,21.47
2023-04-15T11:18:57.018Z,20.41
2023-04-15T11:21:28.322Z,21.26
2023-04-15T11:23:56.968Z,20.91
2023-04-15T11:26:28.394Z,21.32
2023-04-15T11:29:26.290Z,20.69
2023-04-15T11:32:05.174Z,19.77
2023-04-15T11:34:34.539Z,19.32
2023-04-15T11:37:06.873Z,19.52
2023-04-15T11:39:35.154Z,19.80
2023-04-15T11:42:02.630Z,19.70
2023-04-15T11:44:32.775Z,19.73
2023-04-15T11:47:00.857Z,20.31
2023-04-15T11:49:31.354Z,20.07
2023-04-15T11:52:01.427Z,20.03
2023-04-15T11:54:31.805Z,19.19
2023-04-15T11:57:02.035Z,19.40
2023-04-15T11:59:45.391Z,20.23
2023-04-15T12:02:15.106Z,20.29
2023-04-15T12:04:43.201Z,20.69
2023-04-15T12:07:12.804Z,20.26
2023-04-15T12:09:43.228Z,20.31
2023-04-15T12:12:13.579Z,20.65
2023-04-15T12:14:45.301Z,20.25
2023-04-15T12:17:13.386Z,21.98
2023-04-15T12:19:43.360Z,21.93
2023-04-15T12:22:15.963Z,22.05
2023-04-15T12:24:47.123Z,20.36
2023-04-15T12:27:16.434Z,20.40
2023-04-15T12:29:44.082Z,20.89
2023-04-15T12:32:21.154Z,20.38
2023-04-15T12:34:53.340Z,21.41
2023-04-15T12:37:22.127Z,21.27
2023-04-15T12:39:50.665Z,21.61
2023-04-15T12:42:18.564Z,21.83
2023-04-15T12:44:47.088Z,20.70
2023-04-15T12:47:14.583Z,19.90
2023-04-15T12:49:42.412Z,20.34
2023-04-15T12:52:09.784Z,20.72
2023-04-15T12:54:37.422Z,20.51
2023-04-15T12:57:07.217Z,20.69
2023-04-15T12:59:35.865Z,20.28
2023-04-15T13:02:04.281Z,20.62
2023-04-15T13:04:33.817Z,20.98
2023-04-15T13:07:02.353Z,21.05
2023-04-15T13:09:30.163Z,20.53
2023-04-15T13:11:57.796Z,20.78
2023-04-15T13:14:25.398Z,20.60
2023-04-15T13:16:53.931Z,20.44
2023-04-15T13:19:21.656Z,20.72
2023-04-15T13:21:49.269Z,21.11
2023-04-15T13:24:18.426Z,21.72
2023-04-15T13:26:45.759Z,22.23
2023-04-15T13:29:14.241Z,21.44
2023-04-15T13:31:41.573Z,20.81
2023-04-15T13:34:09.139Z,20.48
2023-04-15T13:36:36.425Z,20.03
2023-04-15T13:39:05.575Z,19.62
2023-04-15T13:41:35.127Z,19.70
2023-04-15T13:44:03.481Z,19.33
2023-04-15T13:46:30.876Z,19.69
2023-04-15T13:48:58.503Z,20.23
2023-04-15T13:51:27.113Z,20.10
2023-04-15T13:53:54.749Z,20.31
2023-04-15T13:56:22.303Z,19.64
2023-04-15T13:58:50.061Z,20.57
2023-04-15T14:01:43.864Z,21.52
2023-04-15T14:04:14.039Z,21.00
2023-04-15T14:06:46.842Z,20.75
2023-04-15T14:09:16.387Z,21.07
2023-04-15T14:11:43.700Z,21.22
2023-04-15T14:14:11.277Z,20.85
2023-04-15T14:16:38.599Z,19.79
2023-04-15T14:19:06.696Z,20.12
2023-04-15T14:21:35.119Z,20.96
2023-04-15T14:24:05.044Z,20.60
2023-04-15T14:26:32.380Z,20.36
2023-04-15T14:29:00.714Z,20.40
2023-04-15T14:31:28.243Z,20.48
2023-04-15T14:33:56.112Z,20.56
2023-04-15T14:36:23.438Z,20.93
2023-04-15T14:38:51.141Z,20.47
2023-04-15T14:41:18.440Z,20.17
2023-04-15T14:43:48.059Z,19.91
2023-04-15T14:46:15.656Z,20.29
2023-04-15T14:48:43.454Z,20.42
2023-04-15T14:51:10.868Z,21.15
2023-04-15T14:53:38.500Z,21.30
2023-04-15T14:56:07.365Z,21.20
2023-04-15T14:58:36.869Z,20.78
2023-04-15T15:01:04.712Z,20.68
2023-04-15T15:03:34.294Z,20.48
2023-04-15T15:06:01.665Z,20.60
2023-04-15T15:08:30.044Z,19.82
2023-04-15T15:10:58.074Z,20.19
2023-04-15T15:13:25.826Z,19.82
2023-04-15T15:15:54.433Z,20.05
2023-04-15T15:18:22.116Z,19.76
2023-04-15T15:20:49.719Z,19.60
2023-04-15T15:23:36.009Z,19.92
2023-04-15T15:26:03.355Z,19.69
2023-04-15T15:28:31.174Z,19.13
2023-04-15T15:31:00.567Z,18.69
2023-04-15T15:33:30.110Z,18.91
2023-04-15T15:35:58.355Z,18.83
2023-04-15T15:38:26.462Z,18.52
2023-04-15T15:40:56.000Z,18.67
2023-04-15T15:43:23.929Z,18.58
2023-04-15T15:45:55.535Z,18.37
2023-04-15T15:48:26.216Z,18.48
2023-04-15T15:50:53.714Z,18.27
2023-04-15T15:53:24.329Z,17.88
2023-04-15T15:55:53.716Z,17.75
2023-04-15T15:58:21.818Z,17.81
2023-04-15T16:00:49.390Z,18.12
2023-04-15T16:03:18.636Z,18.01
2023-04-15T16:05:47.993Z,17.54
2023-04-15T16:08:16.260Z,17.08
2023-04-15T16:10:43.584Z,16.98
2023-04-15T16:13:11.455Z,16.89
2023-04-15T16:15:38.773Z,16.41
2023-04-15T16:18:06.394Z,16.48
2023-04-15T16:20:58.869Z,16.03
2023-04-15T16:23:29.378Z,15.33
2023-04-15T16:25:57.734Z,15.14
2023-04-15T16:28:27.104Z,15.36
2023-04-15T16:30:57.243Z,15.30
2023-04-15T16:33:24.927Z,15.22
2023-04-15T16:35:53.126Z,15.35
2023-04-15T16:38:21.797Z,15.18
2023-04-15T16:40:49.174Z,15.14
2023-04-15T16:43:17.925Z,15.22
2023-04-15T16:45:51.002Z,15.21
2023-04-15T16:48:20.887Z,15.21
2023-04-15T16:50:49.566Z,15.20
2023-04-15T16:53:17.172Z,15.04
2023-04-15T16:55:44.433Z,15.10
2023-04-15T16:58:12.052Z,14.93
2023-04-15T17:00:40.475Z,14.86
2023-04-15T17:03:12.520Z,14.85
2023-04-15T17:05:40.163Z,14.65
2023-04-15T17:08:08.643Z,14.43
2023-04-15T17:10:36.664Z,14.38
2023-04-15T17:13:04.439Z,14.22
2023-04-15T17:15:31.737Z,14.23
2023-04-15T17:18:00.688Z,14.29
2023-04-15T17:20:30.278Z,14.22
2023-04-15T17:23:00.544Z,14.30
2023-04-15T17:25:28.092Z,14.21
2023-04-15T17:27:55.798Z,13.89
2023-04-15T17:30:23.724Z,13.59
2023-04-15T17:32:52.963Z,13.48
2023-04-15T17:35:28.020Z,13.24
2023-04-15T17:37:58.527Z,13.40
2023-04-15T17:40:26.091Z,13.42
2023-04-15T17:42:54.923Z,13.54
2023-04-15T17:45:23.120Z,13.50
2023-04-15T17:47:51.088Z,13.67
2023-04-15T17:50:18.522Z,13.73
2023-04-15T17:52:48.472Z,13.33
2023-04-15T17:55:16.094Z,13.25
2023-04-15T17:57:46.521Z,13.16
2023-04-15T18:00:16.986Z,13.24
2023-04-15T18:02:45.389Z,12.96
2023-04-15T18:05:15.375Z,13.18
2023-04-15T18:07:43.672Z,13.45
2023-04-15T18:10:11.832Z,13.56
2023-04-15T18:12:39.640Z,13.25
2023-04-15T18:15:09.685Z,12.72
2023-04-15T18:17:37.402Z,12.71
2023-04-15T18:20:10.896Z,13.01
2023-04-15T18:22:43.546Z,12.90
2023-04-15T18:25:14.388Z,12.74
2023-04-15T18:27:43.009Z,12.87
2023-04-15T18:30:13.759Z,12.94
2023-04-15T18:32:41.876Z,12.70
2023-04-15T18:35:10.484Z,12.54
2023-04-15T18:37:38.445Z,12.57
2023-04-15T18:40:16.495Z,12.64
2023-04-15T18:42:53.254Z,12.50
2023-04-15T18:45:20.952Z,12.39
2023-04-15T18:47:48.912Z,12.26
2023-04-15T18:50:17.586Z,12.32
2023-04-15T18:52:45.237Z,12.22
2023-04-15T18:55:15.350Z,12.34
2023-04-15T18:57:50.028Z,12.66
2023-04-15T19:00:23.194Z,12.56
2023-04-15T19:02:53.049Z,12.88
2023-04-15T19:05:20.616Z,12.77
2023-04-15T19:07:50.553Z,12.79
2023-04-15T19:10:17.948Z,12.87
2023-04-15T19:12:45.747Z,12.92
2023-04-15T19:15:13.046Z,13.07
2023-04-15T19:17:40.921Z,12.88
2023-04-15T19:20:20.363Z,13.06
2023-04-15T19:23:16.694Z,13.27
2023-04-15T19:25:45.979Z,13.17
2023-04-15T19:28:15.583Z,13.09
2023-04-15T19:30:44.090Z,13.36
2023-04-15T19:33:11.401Z,13.23
2023-04-15T19:35:41.137Z,13.14
2023-04-15T19:38:08.482Z,12.94
2023-04-15T19:40:38.360Z,13.14
2023-04-15T19:43:06.738Z,13.15
2023-04-15T19:45:34.797Z,13.08
2023-04-15T19:48:02.250Z,12.97
2023-04-15T19:50:30.111Z,12.93
2023-04-15T19:52:58.550Z,12.90
2023-04-15T19:55:26.374Z,12.77
2023-04-15T19:57:54.365Z,13.05
2023-04-15T20:00:26.252Z,13.12
2023-04-15T20:02:58.713Z,13.05
2023-04-15T20:05:29.831Z,12.86
2023-04-15T20:08:00.424Z,12.80
2023-04-15T20:10:28.416Z,12.73
2023-04-15T20:12:57.173Z,12.85
2023-04-15T20:15:26.519Z,12.83
2023-04-15T20:17:54.692Z,12.82
2023-04-15T20:20:24.758Z,12.79
2023-04-15T20:22:53.287Z,12.90
2023-04-15T20:25:22.154Z,12.86
2023-04-15T20:27:49.494Z,12.84
2023-04-15T20:30:20.073Z,12.80
2023-04-15T20:32:47.489Z,12.92
2023-04-15T20:35:15.128Z,12.92
2023-04-15T20:37:45.280Z,12.72
2023-04-15T20:40:18.464Z,12.84
2023-04-15T20:42:48.094Z,12.58
2023-04-15T20:45:23.565Z,12.63
2023-04-15T20:47:51.591Z,12.59
2023-04-15T20:50:20.606Z,12.60
2023-04-15T20:52:49.575Z,12.56
2023-04-15T20:55:17.213Z,12.41
2023-04-15T20:57:49.932Z,12.46
2023-04-15T21:00:20.407Z,12.39
2023-04-15T21:02:49.314Z,12.44
2023-04-15T21:05:20.396Z,12.19
2023-04-15T21:07:47.662Z,12.28
2023-04-15T21:10:15.557Z,12.39
2023-04-15T21:12:42.911Z,12.59
2023-04-15T21:15:11.795Z,12.75
2023-04-15T21:17:39.859Z,12.97
2023-04-15T21:20:12.338Z,12.76
2023-04-15T21:22:41.333Z,12.58
2023-04-15T21:25:09.442Z,12.50
2023-04-15T21:27:36.703Z,12.59
2023-04-15T21:30:04.649Z,12.62
2023-04-15T21:32:34.687Z,12.64
2023-04-15T21:35:02.751Z,12.74
2023-04-15T21:37:30.052Z,12.77
2023-04-15T21:39:57.625Z,12.69
2023-04-15T21:42:32.879Z,12.50
2023-04-15T21:45:01.900Z,12.42
2023-04-15T21:48:06.113Z,12.26
2023-04-15T21:50:24.989Z,12.10
2023-04-15T21:52:56.569Z,12.19
2023-04-15T21:55:27.443Z,11.95
2023-04-15T21:57:57.021Z,11.94
2023-04-15T22:00:24.946Z,12.18
2023-04-15T22:02:56.585Z,12.12
2023-04-15T22:05:25.553Z,11.99
2023-04-15T22:07:54.141Z,11.99
2023-04-15T22:10:21.937Z,11.99
2023-04-15T22:12:51.187Z,11.97
2023-04-15T22:15:18.750Z,12.10
2023-04-15T22:17:47.112Z,12.10
2023-04-15T22:20:19.188Z,12.01
2023-04-15T22:22:46.625Z,12.02
2023-04-15T22:25:16.276Z,11.87
2023-04-15T22:27:44.243Z,11.77
2023-04-15T22:30:13.409Z,11.78
2023-04-15T22:32:40.900Z,12.05
2023-04-15T22:35:09.001Z,12.15
2023-04-15T22:37:36.289Z,11.96
2023-04-15T22:40:29.270Z,12.04
2023-04-15T22:43:00.759Z,11.93
2023-04-15T22:45:28.411Z,11.69
2023-04-15T22:47:55.813Z,11.75
2023-04-15T22:50:23.624Z,11.91
2023-04-15T22:52:51.348Z,12.03
2023-04-15T22:55:19.207Z,11.89
2023-04-15T22:57:46.613Z,11.94
2023-04-15T23:00:16.560Z,12.03
2023-04-15T23:02:44.312Z,12.26
2023-04-15T23:05:13.603Z,12.15
2023-04-15T23:07:41.628Z,12.08
2023-04-15T23:10:10.550Z,12.05
2023-04-15T23:12:39.028Z,11.97
2023-04-15T23:15:07.309Z,12.07
2023-04-15T23:17:35.068Z,11.97
2023-04-15T23:20:10.072Z,11.79
2023-04-15T23:22:38.650Z,11.58
2023-04-15T23:25:06.618Z,11.44
2023-04-15T23:27:33.926Z,11.47
2023-04-15T23:30:01.675Z,11.44
2023-04-15T23:32:29.373Z,11.62
2023-04-15T23:35:04.258Z,11.33
2023-04-15T23:37:32.827Z,10.90
2023-04-15T23:40:29.527Z,10.79
2023-04-15T23:43:09.392Z,10.74
2023-04-15T23:45:41.559Z,10.75
2023-04-15T23:48:11.939Z,10.60
2023-04-15T23:50:41.299Z,10.72
2023-04-15T23:53:10.816Z,10.90
2023-04-15T23:55:44.860Z,11.11
2023-04-15T23:58:12.203Z,10.98
